createdAt,value
2023-05-14T00:00:21.998Z,62.79
2023-05-14T00:02:48.806Z,62.45
2023-05-14T00:05:15.691Z,62.85
2023-05-14T00:07:42.173Z,62.93
2023-05-14T00:10:09.110Z,62.64
2023-05-14T00:12:35.738Z,62.74
2023-05-14T00:15:02.652Z,62.48
2023-05-14T00:17:29.234Z,62.16
2023-05-14T00:19:55.775Z,61.69
2023-05-14T00:22:22.357Z,61.57
2023-05-14T00:24:53.163Z,61.08
2023-05-14T00:27:19.683Z,61.70
2023-05-14T00:29:46.214Z,61.37
2023-05-14T00:32:12.709Z,60.83
2023-05-14T00:34:39.188Z,61.46
2023-05-14T00:37:05.720Z,61.38
2023-05-14T00:39:32.328Z,61.28
2023-05-14T00:41:59.027Z,61.52
2023-05-14T00:44:25.687Z,61.26
2023-05-14T00:46:52.682Z,61.69
2023-05-14T00:49:19.196Z,61.57
2023-05-14T00:51:48.621Z,62.01
2023-05-14T00:54:17.237Z,62.56
2023-05-14T00:56:45.795Z,62.84
2023-05-14T00:59:12.612Z,63.80
2023-05-14T01:01:39.216Z,63.37
2023-05-14T01:04:07.453Z,63.43
2023-05-14T01:07:08.043Z,64.28
2023-05-14T01:09:46.327Z,64.40
2023-05-14T01:12:34.761Z,63.92
2023-05-14T01:15:21.815Z,64.53
2023-05-14T01:17:58.005Z,64.10
2023-05-14T01:20:26.122Z,64.00
2023-05-14T01:22:52.811Z,63.18
2023-05-14T01:25:19.267Z,62.85
2023-05-14T01:27:57.827Z,63.12
2023-05-14T01:30:34.544Z,63.64
2023-05-14T01:33:03.878Z,63.78
2023-05-14T01:35:30.888Z,63.14
2023-05-14T01:37:59.823Z,63.10
2023-05-14T01:40:27.102Z,64.62
2023-05-14T01:42:53.920Z,64.15
2023-05-14T01:45:21.580Z,64.79
2023-05-14T01:47:51.987Z,64.77
2023-05-14T01:50:22.565Z,64.11
2023-05-14T01:52:49.606Z,63.63
2023-05-14T01:55:16.176Z,64.64
2023-05-14T01:57:42.629Z,64.97
2023-05-14T02:00:09.477Z,63.73
2023-05-14T02:02:36.040Z,64.33
2023-05-14T02:05:03.915Z,64.34
2023-05-14T02:07:32.111Z,64.41
2023-05-14T02:09:58.595Z,64.40
2023-05-14T02:12:25.104Z,64.29
2023-05-14T02:14:51.615Z,64.20
2023-05-14T02:17:18.110Z,65.09
2023-05-14T02:19:45.128Z,65.71
2023-05-14T02:22:12.227Z,65.45
2023-05-14T02:24:38.845Z,64.89
2023-05-14T02:27:06.335Z,65.19
2023-05-14T02:29:32.833Z,66.12
2023-05-14T02:31:59.329Z,66.49
2023-05-14T02:34:26.025Z,66.26
2023-05-14T02:36:52.474Z,65.72
2023-05-14T02:39:18.936Z,66.03
2023-05-14T02:41:45.449Z,65.91
2023-05-14T02:44:11.960Z,66.15
2023-05-14T02:46:38.454Z,66.33
2023-05-14T02:49:04.958Z,66.61
2023-05-14T02:51:31.560Z,66.44
2023-05-14T02:53:58.111Z,66.70
2023-05-14T02:56:24.559Z,66.46
2023-05-14T02:58:51.014Z,65.95
2023-05-14T03:01:18.817Z,65.96
2023-05-14T03:03:45.865Z,66.49
2023-05-14T03:06:12.683Z,66.71
2023-05-14T03:08:39.154Z,66.42
2023-05-14T03:11:06.886Z,66.79
2023-05-14T03:13:33.429Z,67.70
2023-05-14T03:15:59.920Z,67.21
2023-05-14T03:18:28.373Z,67.71
2023-05-14T03:20:54.888Z,66.52
2023-05-14T03:23:21.360Z,67.16
2023-05-14T03:25:47.798Z,66.20
2023-05-14T03:28:14.315Z,66.55
2023-05-14T03:30:40.944Z,67.36
2023-05-14T03:33:07.621Z,67.11
2023-05-14T03:35:34.102Z,67.30
2023-05-14T03:38:00.612Z,67.43
2023-05-14T03:40:27.161Z,67.65
2023-05-14T03:42:53.675Z,66.75
2023-05-14T03:45:20.177Z,67.09
2023-05-14T03:47:46.738Z,67.60
2023-05-14T03:50:13.259Z,67.57
2023-05-14T03:52:40.522Z,66.91
2023-05-14T03:55:07.403Z,67.19
2023-05-14T03:57:33.992Z,66.83
2023-05-14T04:00:00.583Z,67.24
2023-05-14T04:02:27.336Z,66.91
2023-05-14T04:04:53.890Z,66.63
2023-05-14T04:07:20.448Z,67.03
2023-05-14T04:09:46.907Z,66.84
2023-05-14T04:12:13.585Z,67.70
2023-05-14T04:14:40.238Z,67.56
2023-05-14T04:17:06.705Z,66.54
2023-05-14T04:19:33.158Z,67.20
2023-05-14T04:21:59.620Z,66.43
2023-05-14T04:24:26.089Z,66.11
2023-05-14T04:26:52.556Z,65.84
2023-05-14T04:29:19.012Z,65.60
2023-05-14T04:31:46.322Z,65.51
2023-05-14T04:34:12.884Z,65.77
2023-05-14T04:36:40.238Z,65.48
2023-05-14T04:39:07.082Z,66.17
2023-05-14T04:41:33.562Z,66.47
2023-05-14T04:44:01.869Z,67.16
2023-05-14T04:46:28.701Z,67.35
2023-05-14T04:48:56.471Z,67.15
2023-05-14T04:51:23.361Z,67.61
2023-05-14T04:53:49.856Z,67.95
2023-05-14T04:56:16.311Z,67.70
2023-05-14T04:58:42.811Z,67.29
2023-05-14T05:01:09.343Z,68.50
2023-05-14T05:03:35.941Z,68.28
2023-05-14T05:06:02.434Z,67.70
2023-05-14T05:08:29.304Z,67.01
2023-05-14T05:10:55.790Z,64.77
2023-05-14T05:13:22.241Z,65.33
2023-05-14T05:15:48.711Z,65.43
2023-05-14T05:18:15.321Z,64.89
2023-05-14T05:20:41.767Z,64.23
2023-05-14T05:23:08.240Z,64.44
2023-05-14T05:25:34.705Z,64.55
2023-05-14T05:28:01.162Z,64.32
2023-05-14T05:30:27.806Z,63.10
2023-05-14T05:32:54.355Z,63.13
2023-05-14T05:35:20.896Z,63.44
2023-05-14T05:37:47.384Z,63.28
2023-05-14T05:40:14.419Z,62.70
2023-05-14T05:42:41.476Z,62.68
2023-05-14T05:45:08.428Z,62.63
2023-05-14T05:47:34.979Z,62.16
2023-05-14T05:50:01.488Z,62.08
2023-05-14T05:52:27.987Z,61.05
2023-05-14T05:54:54.438Z,60.80
2023-05-14T05:57:25.110Z,60.39
2023-05-14T05:59:53.163Z,60.06
2023-05-14T06:02:20.319Z,59.49
2023-05-14T06:04:46.876Z,59.96
2023-05-14T06:07:13.355Z,60.17
2023-05-14T06:09:39.821Z,59.99
2023-05-14T06:12:06.684Z,58.38
2023-05-14T06:14:33.140Z,59.07
2023-05-14T06:16:59.904Z,59.25
2023-05-14T06:19:26.503Z,58.02
2023-05-14T06:21:52.966Z,58.54
2023-05-14T06:24:20.351Z,58.37
2023-05-14T06:26:46.862Z,57.73
2023-05-14T06:29:13.365Z,57.35
2023-05-14T06:31:39.876Z,56.62
2023-05-14T06:34:06.364Z,56.91
2023-05-14T06:36:32.875Z,56.68
2023-05-14T06:38:59.513Z,56.24
2023-05-14T06:41:26.242Z,54.39
2023-05-14T06:43:52.716Z,54.88
2023-05-14T06:46:19.167Z,54.87
2023-05-14T06:48:45.885Z,54.49
2023-05-14T06:51:13.365Z,54.41
2023-05-14T06:53:40.730Z,53.49
2023-05-14T06:56:07.847Z,53.81
2023-05-14T06:58:34.357Z,52.92
2023-05-14T07:01:00.914Z,53.24
2023-05-14T07:03:27.575Z,52.36
2023-05-14T07:05:54.026Z,52.62
2023-05-14T07:08:20.492Z,53.55
2023-05-14T07:10:46.937Z,52.02
2023-05-14T07:13:13.611Z,50.91
2023-05-14T07:15:40.065Z,49.89
2023-05-14T07:18:06.581Z,49.81
2023-05-14T07:20:33.703Z,48.65
2023-05-14T07:23:00.272Z,47.67
2023-05-14T07:25:26.756Z,47.15
2023-05-14T07:27:53.274Z,47.58
2023-05-14T07:30:20.038Z,48.30
2023-05-14T07:32:46.578Z,46.07
2023-05-14T07:35:13.150Z,46.51
2023-05-14T07:37:39.695Z,44.53
2023-05-14T07:40:06.925Z,45.02
2023-05-14T07:42:37.137Z,44.98
2023-05-14T07:45:04.594Z,43.70
2023-05-14T07:47:31.293Z,43.16
2023-05-14T07:49:58.285Z,43.29
2023-05-14T07:52:24.913Z,42.21
2023-05-14T07:54:52.096Z,41.38
2023-05-14T07:57:19.787Z,40.77
2023-05-14T07:59:47.442Z,40.08
2023-05-14T08:02:16.109Z,40.78
2023-05-14T08:04:42.813Z,40.30
2023-05-14T08:07:09.421Z,41.91
2023-05-14T08:09:36.111Z,39.98
2023-05-14T08:12:02.896Z,38.69
2023-05-14T08:14:29.451Z,38.38
2023-05-14T08:16:56.144Z,39.49
2023-05-14T08:19:24.384Z,38.71
2023-05-14T08:21:51.486Z,39.71
2023-05-14T08:24:18.983Z,39.73
2023-05-14T08:26:45.503Z,39.59
2023-05-14T08:29:13.998Z,37.84
2023-05-14T08:31:42.353Z,38.29
2023-05-14T08:34:08.953Z,36.54
2023-05-14T08:36:35.555Z,36.29
2023-05-14T08:39:02.437Z,36.16
2023-05-14T08:41:28.983Z,36.52
2023-05-14T08:44:05.546Z,36.29
2023-05-14T08:46:32.538Z,36.95
2023-05-14T08:49:28.258Z,35.44
2023-05-14T08:51:55.648Z,34.42
2023-05-14T08:54:23.811Z,34.63
2023-05-14T08:56:51.932Z,34.22
2023-05-14T08:59:18.858Z,34.91
2023-05-14T09:01:49.612Z,36.51
2023-05-14T09:04:20.462Z,35.05
2023-05-14T09:06:49.427Z,34.79
2023-05-14T09:09:16.288Z,34.06
2023-05-14T09:11:46.029Z,33.32
2023-05-14T09:14:12.525Z,33.29
2023-05-14T09:16:40.497Z,33.41
2023-05-14T09:19:07.420Z,33.81
2023-05-14T09:21:34.654Z,32.98
2023-05-14T09:24:01.430Z,33.04
2023-05-14T09:26:32.090Z,31.97
2023-05-14T09:29:02.104Z,31.83
2023-05-14T09:31:33.208Z,33.30
2023-05-14T09:34:00.667Z,32.07
2023-05-14T09:36:27.452Z,33.22
2023-05-14T09:38:56.828Z,32.55
2023-05-14T09:41:24.434Z,32.31
2023-05-14T09:43:51.730Z,32.82
2023-05-14T09:46:18.348Z,34.00
2023-05-14T09:48:45.981Z,32.90
2023-05-14T09:51:13.383Z,31.19
2023-05-14T09:53:41.298Z,31.55
2023-05-14T09:56:07.796Z,32.18
2023-05-14T09:58:34.336Z,32.58
2023-05-14T10:01:01.957Z,32.45
2023-05-14T10:03:30.428Z,34.85
2023-05-14T10:06:01.412Z,34.24
2023-05-14T10:08:31.123Z,33.98
2023-05-14T10:10:58.933Z,35.61
2023-05-14T10:13:30.993Z,34.66
2023-05-14T10:16:04.485Z,32.14
2023-05-14T10:18:31.924Z,33.06
2023-05-14T10:21:05.786Z,32.42
2023-05-14T10:23:33.347Z,33.04
2023-05-14T10:26:00.223Z,33.65
2023-05-14T10:28:27.464Z,31.27
2023-05-14T10:30:54.567Z,31.67
2023-05-14T10:33:21.343Z,33.61
2023-05-14T10:36:00.595Z,33.08
2023-05-14T10:38:28.588Z,32.87
2023-05-14T10:40:57.892Z,33.07
2023-05-14T10:43:27.597Z,33.03
2023-05-14T10:45:54.266Z,32.97
2023-05-14T10:48:21.312Z,34.50
2023-05-14T10:50:48.634Z,33.80
2023-05-14T10:53:15.162Z,32.77
2023-05-14T10:55:43.220Z,32.26
2023-05-14T10:58:10.905Z,33.47
2023-05-14T11:00:38.087Z,33.39
2023-05-14T11:03:06.110Z,33.54
2023-05-14T11:05:37.168Z,33.56
2023-05-14T11:08:07.690Z,34.16
2023-05-14T11:10:35.602Z,34.26
2023-05-14T11:13:02.583Z,34.64
2023-05-14T11:15:29.417Z,33.64
2023-05-14T11:17:56.086Z,33.62
2023-05-14T11:20:22.890Z,32.08
2023-05-14T11:22:53.062Z,32.83
2023-05-14T11:25:19.895Z,32.38
2023-05-14T11:27:47.487Z,31.35
2023-05-14T11:30:15.497Z,32.37
2023-05-14T11:32:43.727Z,32.10
2023-05-14T11:35:10.330Z,33.97
2023-05-14T11:37:36.919Z,30.97
2023-05-14T11:40:09.059Z,30.51
2023-05-14T11:42:36.751Z,30.67
2023-05-14T11:45:03.563Z,31.50
2023-05-14T11:47:31.109Z,30.57
2023-05-14T11:49:57.603Z,29.62
2023-05-14T11:52:24.261Z,29.28
2023-05-14T11:54:51.078Z,28.89
2023-05-14T11:57:19.631Z,28.62
2023-05-14T11:59:46.927Z,28.08
2023-05-14T12:02:15.244Z,26.69
2023-05-14T12:04:42.398Z,28.96
2023-05-14T12:07:13.695Z,27.68
2023-05-14T12:09:45.049Z,27.15
2023-05-14T12:12:12.818Z,27.25
2023-05-14T12:14:41.710Z,26.77
2023-05-14T12:17:20.152Z,29.12
2023-05-14T12:19:49.915Z,29.44
2023-05-14T12:22:21.110Z,29.03
2023-05-14T12:24:57.664Z,28.79
2023-05-14T12:27:26.361Z,30.53
2023-05-14T12:30:19.940Z,32.48
2023-05-14T12:32:52.639Z,33.56
2023-05-14T12:35:21.113Z,33.24
2023-05-14T12:37:47.634Z,34.29
2023-05-14T12:40:14.131Z,34.30
2023-05-14T12:42:40.892Z,35.16
2023-05-14T12:45:08.615Z,34.98
2023-05-14T12:47:44.732Z,34.37
2023-05-14T12:50:11.428Z,34.29
2023-05-14T12:52:39.914Z,34.00
2023-05-14T12:55:10.009Z,34.51
2023-05-14T12:57:38.317Z,34.95
2023-05-14T13:00:08.555Z,35.50
2023-05-14T13:02:42.525Z,35.74
2023-05-14T13:05:10.738Z,36.77
2023-05-14T13:07:37.521Z,35.61
2023-05-14T13:10:05.889Z,35.59
2023-05-14T13:12:32.597Z,36.46
2023-05-14T13:14:59.064Z,36.21
2023-05-14T13:17:25.607Z,36.95
2023-05-14T13:19:52.100Z,36.35
2023-05-14T13:22:18.968Z,36.36
2023-05-14T13:24:45.722Z,35.58
2023-05-14T13:27:14.574Z,35.33
2023-05-14T13:29:41.757Z,35.22
2023-05-14T13:32:09.039Z,35.00
2023-05-14T13:34:36.666Z,35.71
2023-05-14T13:37:04.119Z,35.28
2023-05-14T13:39:30.898Z,35.06
2023-05-14T13:41:57.331Z,33.88
2023-05-14T13:44:24.527Z,34.56
2023-05-14T13:46:51.199Z,34.54
2023-05-14T13:49:17.878Z,34.01
2023-05-14T13:51:44.631Z,35.15
2023-05-14T13:54:11.180Z,36.63
2023-05-14T13:56:37.727Z,36.53
2023-05-14T13:59:04.388Z,37.89
2023-05-14T14:01:31.737Z,38.57
2023-05-14T14:03:58.413Z,38.72
2023-05-14T14:06:27.352Z,43.65
2023-05-14T14:08:53.979Z,43.79
2023-05-14T14:11:20.676Z,43.20
2023-05-14T14:13:47.144Z,42.33
2023-05-14T14:16:13.679Z,39.64
2023-05-14T14:18:40.330Z,37.50
2023-05-14T14:21:06.844Z,36.64
2023-05-14T14:23:33.361Z,36.28
2023-05-14T14:26:00.525Z,35.94
2023-05-14T14:28:27.001Z,36.17
2023-05-14T14:30:54.442Z,35.19
2023-05-14T14:33:20.979Z,35.07
2023-05-14T14:35:53.729Z,34.90
2023-05-14T14:38:20.219Z,35.59
2023-05-14T14:40:46.914Z,35.09
2023-05-14T14:43:13.380Z,34.74
2023-05-14T14:45:39.976Z,35.21
2023-05-14T14:48:30.923Z,35.51
2023-05-14T14:50:57.723Z,35.23
2023-05-14T14:53:25.132Z,34.48
2023-05-14T14:55:51.981Z,33.84
2023-05-14T14:58:19.540Z,33.83
2023-05-14T15:00:46.102Z,33.15
2023-05-14T15:03:12.868Z,33.27
2023-05-14T15:05:39.502Z,33.42
2023-05-14T15:08:06.170Z,32.25
2023-05-14T15:10:32.893Z,32.16
2023-05-14T15:12:59.883Z,32.62
2023-05-14T15:15:26.533Z,32.84
2023-05-14T15:17:53.196Z,32.86
2023-05-14T15:20:19.789Z,32.80
2023-05-14T15:22:46.302Z,33.56
2023-05-14T15:25:12.810Z,33.85
2023-05-14T15:27:39.503Z,33.32
2023-05-14T15:30:07.495Z,33.15
2023-05-14T15:32:34.092Z,33.42
2023-05-14T15:35:01.173Z,33.34
2023-05-14T15:37:27.755Z,32.89
2023-05-14T15:39:54.343Z,32.88
2023-05-14T15:42:21.077Z,33.06
2023-05-14T15:44:47.570Z,33.03
2023-05-14T15:47:14.030Z,32.42
2023-05-14T15:49:40.507Z,32.95
2023-05-14T15:52:07.244Z,33.33
2023-05-14T15:54:34.053Z,33.06
2023-05-14T15:57:01.006Z,33.49
2023-05-14T15:59:27.550Z,34.08
2023-05-14T16:01:54.062Z,33.44
2023-05-14T16:04:20.636Z,34.09
2023-05-14T16:06:47.146Z,35.22
2023-05-14T16:09:13.604Z,34.11
2023-05-14T16:11:40.088Z,34.68
2023-05-14T16:14:06.900Z,35.73
2023-05-14T16:16:33.449Z,36.20
2023-05-14T16:19:00.185Z,36.41
2023-05-14T16:21:27.337Z,36.63
2023-05-14T16:23:53.955Z,35.98
2023-05-14T16:26:20.768Z,36.98
2023-05-14T16:28:47.388Z,37.44
2023-05-14T16:31:15.354Z,38.44
2023-05-14T16:33:42.031Z,39.84
2023-05-14T16:36:08.971Z,38.63
2023-05-14T16:38:41.336Z,38.70
2023-05-14T16:41:11.201Z,38.84
2023-05-14T16:43:37.736Z,38.07
2023-05-14T16:46:04.414Z,37.41
2023-05-14T16:48:30.908Z,36.28
2023-05-14T16:50:59.432Z,35.73
2023-05-14T16:53:26.138Z,34.82
2023-05-14T16:55:52.779Z,34.69
2023-05-14T16:58:19.198Z,35.68
2023-05-14T17:00:45.852Z,38.24
2023-05-14T17:03:12.316Z,39.11
2023-05-14T17:05:38.820Z,39.92
2023-05-14T17:08:05.903Z,39.20
2023-05-14T17:10:33.331Z,39.14
2023-05-14T17:13:00.290Z,38.07
2023-05-14T17:15:26.801Z,37.82
2023-05-14T17:17:53.454Z,37.80
2023-05-14T17:20:20.094Z,37.25
2023-05-14T17:22:46.637Z,36.52
2023-05-14T17:25:13.147Z,36.69
2023-05-14T17:27:39.606Z,37.69
2023-05-14T17:30:06.865Z,37.81
2023-05-14T17:32:33.528Z,38.94
2023-05-14T17:35:00.118Z,38.03
2023-05-14T17:37:26.702Z,38.90
2023-05-14T17:39:53.279Z,38.24
2023-05-14T17:42:19.787Z,39.19
2023-05-14T17:44:46.332Z,39.28
2023-05-14T17:47:13.114Z,39.80
2023-05-14T17:49:39.724Z,39.56
2023-05-14T17:52:06.655Z,39.96
2023-05-14T17:54:33.211Z,40.67
2023-05-14T17:56:59.665Z,41.80
2023-05-14T17:59:26.269Z,41.60
2023-05-14T18:01:52.790Z,41.72
2023-05-14T18:04:20.002Z,42.40
2023-05-14T18:06:46.485Z,42.38
2023-05-14T18:09:13.277Z,42.65
2023-05-14T18:11:39.813Z,42.58
2023-05-14T18:14:06.381Z,42.99
2023-05-14T18:16:32.896Z,43.17
2023-05-14T18:19:00.406Z,43.33
2023-05-14T18:21:26.948Z,43.89
2023-05-14T18:23:53.389Z,44.12
2023-05-14T18:26:21.930Z,43.90
2023-05-14T18:28:48.673Z,43.71
2023-05-14T18:31:15.279Z,43.95
2023-05-14T18:33:41.771Z,44.01
2023-05-14T18:36:08.292Z,44.57
2023-05-14T18:38:34.780Z,45.46
2023-05-14T18:41:01.316Z,44.59
2023-05-14T18:43:27.850Z,44.95
2023-05-14T18:45:54.378Z,45.16
2023-05-14T18:48:20.958Z,45.19
2023-05-14T18:50:47.688Z,45.76
2023-05-14T18:53:14.248Z,45.19
2023-05-14T18:55:40.873Z,46.33
2023-05-14T18:58:08.317Z,45.89
2023-05-14T19:00:34.883Z,46.55
2023-05-14T19:03:01.535Z,47.42
2023-05-14T19:05:31.182Z,46.38
2023-05-14T19:07:59.576Z,46.81
2023-05-14T19:10:38.701Z,47.31
2023-05-14T19:13:06.647Z,47.14
2023-05-14T19:15:34.481Z,46.86
2023-05-14T19:18:04.352Z,47.53
2023-05-14T19:20:39.041Z,47.80
2023-05-14T19:23:14.930Z,47.81
2023-05-14T19:26:01.703Z,48.63
2023-05-14T19:28:29.231Z,48.12
2023-05-14T19:30:57.588Z,49.22
2023-05-14T19:33:33.109Z,48.86
2023-05-14T19:36:04.003Z,50.21
2023-05-14T19:38:42.555Z,51.06
2023-05-14T19:41:17.323Z,50.43
2023-05-14T19:43:45.549Z,50.45
2023-05-14T19:46:20.761Z,51.33
2023-05-14T19:48:52.770Z,51.67
2023-05-14T19:51:26.677Z,50.86
2023-05-14T19:53:54.061Z,51.13
2023-05-14T19:56:26.467Z,51.10
2023-05-14T19:58:58.146Z,51.15
2023-05-14T20:01:26.109Z,51.23
2023-05-14T20:03:56.532Z,51.64
2023-05-14T20:06:27.525Z,51.88
2023-05-14T20:09:04.642Z,52.51
2023-05-14T20:11:32.458Z,52.82
2023-05-14T20:14:01.015Z,52.65
2023-05-14T20:16:28.932Z,52.29
2023-05-14T20:18:57.882Z,52.83
2023-05-14T20:21:24.872Z,53.00
2023-05-14T20:23:53.881Z,53.72
2023-05-14T20:26:22.241Z,54.25
2023-05-14T20:28:48.942Z,54.43
2023-05-14T20:31:15.534Z,54.36
2023-05-14T20:33:42.049Z,54.08
2023-05-14T20:36:08.606Z,54.23
2023-05-14T20:38:35.209Z,54.70
2023-05-14T20:41:01.898Z,54.85
2023-05-14T20:43:28.604Z,54.98
2023-05-14T20:45:58.012Z,54.82
2023-05-14T20:48:24.631Z,54.35
2023-05-14T20:50:51.969Z,55.21
2023-05-14T20:53:18.563Z,56.18
2023-05-14T20:55:45.119Z,55.07
2023-05-14T20:58:11.604Z,54.95
2023-05-14T21:00:39.484Z,54.79
2023-05-14T21:03:06.172Z,54.83
2023-05-14T21:05:32.902Z,54.92
2023-05-14T21:07:59.615Z,54.85
2023-05-14T21:10:26.424Z,54.72
2023-05-14T21:12:53.055Z,55.38
2023-05-14T21:15:19.501Z,55.07
2023-05-14T21:17:49.542Z,55.13
2023-05-14T21:20:16.031Z,54.96
2023-05-14T21:22:42.554Z,54.81
2023-05-14T21:25:09.350Z,55.44
2023-05-14T21:27:35.902Z,55.21
2023-05-14T21:30:02.522Z,56.38
2023-05-14T21:32:29.006Z,56.36
2023-05-14T21:34:56.197Z,56.93
2023-05-14T21:37:22.691Z,57.75
2023-05-14T21:39:49.175Z,57.40
2023-05-14T21:42:16.335Z,57.11
2023-05-14T21:44:42.815Z,57.63
2023-05-14T21:47:09.266Z,58.24
2023-05-14T21:49:35.800Z,57.67
2023-05-14T21:52:02.354Z,58.83
2023-05-14T21:54:28.848Z,59.03
2023-05-14T21:56:55.578Z,59.22
2023-05-14T21:59:22.615Z,59.28
2023-05-14T22:04:19.025Z,58.25
2023-05-14T22:06:45.618Z,58.53
2023-05-14T22:09:12.143Z,58.81
2023-05-14T22:11:38.605Z,60.12
2023-05-14T22:14:05.075Z,59.71
2023-05-14T22:16:33.058Z,59.72
2023-05-14T22:18:59.685Z,59.74
2023-05-14T22:21:26.146Z,59.28
2023-05-14T22:23:52.667Z,59.49
2023-05-14T22:26:19.574Z,59.71
2023-05-14T22:28:46.141Z,60.03
2023-05-14T22:31:12.691Z,59.87
2023-05-14T22:33:39.238Z,59.59
2023-05-14T22:36:07.031Z,60.17
2023-05-14T22:38:34.277Z,60.50
2023-05-14T22:41:00.839Z,61.94
2023-05-14T22:43:27.339Z,62.17
2023-05-14T22:45:53.934Z,62.57
2023-05-14T22:48:20.390Z,61.74
2023-05-14T22:50:46.956Z,62.23
2023-05-14T22:53:13.422Z,62.19
2023-05-14T22:55:39.934Z,62.13
2023-05-14T22:58:07.001Z,61.81
2023-05-14T23:00:33.455Z,62.04
2023-05-14T23:02:59.909Z,62.68
2023-05-14T23:05:26.666Z,63.36
2023-05-14T23:07:53.609Z,64.71
2023-05-14T23:10:20.077Z,63.42
2023-05-14T23:12:46.527Z,63.41
2023-05-14T23:15:13.028Z,62.78
2023-05-14T23:17:39.926Z,63.82
2023-05-14T23:20:07.327Z,64.41
2023-05-14T23:22:33.802Z,64.21
2023-05-14T23:25:00.400Z,64.20
2023-05-14T23:27:27.198Z,63.87
2023-05-14T23:29:53.669Z,64.28
2023-05-14T23:32:20.158Z,64.74
2023-05-14T23:34:46.632Z,64.24
2023-05-14T23:37:13.622Z,63.97
2023-05-14T23:39:40.216Z,63.41
2023-05-14T23:42:06.792Z,63.61
2023-05-14T23:44:33.260Z,64.83
2023-05-14T23:46:59.830Z,64.63
2023-05-14T23:49:26.394Z,64.73
2023-05-14T23:51:52.888Z,65.02
2023-05-14T23:54:19.372Z,65.58
2023-05-14T23:56:45.854Z,66.12
2023-05-14T23:59:12.396Z,65.55
